createdAt,value
2017-09-20T00:01:14.302Z,14.40
2017-09-20T00:03:41.743Z,14.20
2017-09-20T00:06:09.188Z,14.30
2017-09-20T00:08:36.614Z,14.65
2017-09-20T00:11:04.118Z,13.23
2017-09-20T00:13:31.570Z,13.60
2017-09-20T00:15:59.029Z,14.02
2017-09-20T00:18:26.507Z,13.43
2017-09-20T00:20:53.942Z,13.00
2017-09-20T00:23:21.403Z,13.32
2017-09-20T00:25:48.858Z,12.60
2017-09-20T00:28:16.288Z,12.85
2017-09-20T00:30:43.870Z,13.48
2017-09-20T00:33:11.313Z,14.23
2017-09-20T00:35:38.895Z,13.62
2017-09-20T00:38:06.347Z,14.10
2017-09-20T00:40:33.859Z,13.82
2017-09-20T00:43:01.363Z,13.98
2017-09-20T00:45:28.807Z,13.13
2017-09-20T00:47:56.247Z,14.07
2017-09-20T00:50:23.698Z,14.07
2017-09-20T00:52:51.142Z,12.60
2017-09-20T00:55:18.579Z,13.75
2017-09-20T00:57:46.806Z,13.30
2017-09-20T01:00:14.255Z,14.27
2017-09-20T01:02:41.698Z,13.60
2017-09-20T01:05:09.176Z,13.80
2017-09-20T01:07:36.648Z,13.38
2017-09-20T01:10:04.091Z,15.03
2017-09-20T01:12:31.528Z,14.52
2017-09-20T01:14:59.000Z,14.00
2017-09-20T01:17:26.458Z,15.50
2017-09-20T01:19:53.938Z,21.12
2017-09-20T01:22:33.450Z,19.93
2017-09-20T01:25:01.011Z,15.02
2017-09-20T01:27:28.447Z,14.30
2017-09-20T01:29:55.883Z,11.52
2017-09-20T01:32:23.338Z,12.50
2017-09-20T01:34:50.849Z,12.98
2017-09-20T01:37:18.276Z,12.70
2017-09-20T01:39:45.766Z,12.52
2017-09-20T01:42:13.307Z,12.25
2017-09-20T01:44:40.747Z,11.18
2017-09-20T01:47:08.207Z,11.10
2017-09-20T01:49:35.643Z,11.70
2017-09-20T01:52:03.082Z,11.20
2017-09-20T01:54:31.303Z,11.45
2017-09-20T01:56:58.878Z,11.07
2017-09-20T01:59:26.315Z,10.80
2017-09-20T02:01:53.776Z,11.30
2017-09-20T02:04:21.214Z,9.93
2017-09-20T02:06:48.662Z,10.27
2017-09-20T02:09:16.099Z,11.32
2017-09-20T02:11:43.566Z,10.32
2017-09-20T02:14:11.000Z,10.88
2017-09-20T02:16:38.455Z,10.07
2017-09-20T02:19:06.663Z,10.38
2017-09-20T02:21:34.114Z,10.88
2017-09-20T02:24:01.595Z,9.77
2017-09-20T02:26:29.039Z,10.07
2017-09-20T02:28:56.494Z,10.35
2017-09-20T02:31:23.935Z,9.60
2017-09-20T02:33:51.418Z,10.20
2017-09-20T02:36:18.980Z,9.98
2017-09-20T02:38:46.433Z,9.60
2017-09-20T02:41:13.909Z,10.52
2017-09-20T02:43:41.355Z,10.75
2017-09-20T02:46:08.793Z,10.70
2017-09-20T02:48:36.266Z,10.20
2017-09-20T02:51:03.710Z,10.82
2017-09-20T02:53:31.154Z,11.40
2017-09-20T02:55:58.632Z,10.70
2017-09-20T02:58:26.066Z,11.20
2017-09-20T03:00:53.538Z,11.27
2017-09-20T03:03:20.992Z,11.10
2017-09-20T03:05:48.496Z,10.98
2017-09-20T03:08:16.749Z,10.25
2017-09-20T03:10:44.291Z,10.80
2017-09-20T03:13:11.727Z,9.77
2017-09-20T03:15:39.162Z,10.95
2017-09-20T03:18:06.634Z,11.12
2017-09-20T03:20:34.069Z,10.40
2017-09-20T03:23:02.282Z,10.33
2017-09-20T03:25:29.723Z,11.00
2017-09-20T03:27:57.159Z,10.60
2017-09-20T03:30:24.616Z,10.00
2017-09-20T03:32:52.045Z,9.40
2017-09-20T03:35:19.577Z,10.35
2017-09-20T03:37:46.998Z,8.90
2017-09-20T03:40:14.450Z,9.15
2017-09-20T03:42:41.892Z,9.90
2017-09-20T03:45:09.478Z,9.30
2017-09-20T03:47:36.898Z,8.80
2017-09-20T03:50:05.141Z,9.40
2017-09-20T03:52:32.567Z,8.77
2017-09-20T03:55:00.015Z,8.20
2017-09-20T03:57:27.486Z,8.20
2017-09-20T03:59:54.923Z,7.47
2017-09-20T04:02:22.410Z,6.97
2017-09-20T04:04:49.847Z,7.18
2017-09-20T04:07:17.296Z,6.57
2017-09-20T04:09:44.739Z,6.25
2017-09-20T04:12:12.182Z,6.62
2017-09-20T04:14:40.374Z,6.60
2017-09-20T04:17:07.854Z,6.30
2017-09-20T04:19:35.287Z,5.80
2017-09-20T04:22:02.774Z,5.90
2017-09-20T04:24:30.215Z,5.68
2017-09-20T04:26:57.662Z,5.50
2017-09-20T04:29:25.090Z,5.37
2017-09-20T04:31:53.322Z,5.53
2017-09-20T04:34:20.759Z,5.40
2017-09-20T04:36:48.209Z,5.30
2017-09-20T04:39:15.639Z,5.00
2017-09-20T04:41:43.849Z,5.43
2017-09-20T04:44:11.291Z,5.28
2017-09-20T04:46:38.727Z,5.60
2017-09-20T04:49:06.222Z,5.47
2017-09-20T04:51:33.663Z,5.50
2017-09-20T04:54:01.099Z,5.90
2017-09-20T04:56:28.531Z,5.37
2017-09-20T04:58:56.740Z,5.70
2017-09-20T05:01:24.184Z,6.12
2017-09-20T05:03:51.640Z,6.20
2017-09-20T05:06:19.146Z,5.43
2017-09-20T05:08:46.593Z,5.80
2017-09-20T05:11:14.048Z,6.40
2017-09-20T05:13:41.507Z,5.80
2017-09-20T05:16:08.963Z,6.60
2017-09-20T05:18:36.404Z,6.70
2017-09-20T05:21:03.833Z,6.85
2017-09-20T05:23:31.254Z,6.87
2017-09-20T05:25:58.798Z,6.75
2017-09-20T05:28:26.252Z,6.30
2017-09-20T05:30:54.243Z,7.40
2017-09-20T05:33:21.683Z,7.10
2017-09-20T05:35:49.235Z,7.35
2017-09-20T05:38:16.683Z,8.68
2017-09-20T05:40:44.143Z,7.40
2017-09-20T05:43:11.690Z,6.97
2017-09-20T05:45:39.159Z,7.95
2017-09-20T05:48:06.602Z,7.60
2017-09-20T05:50:34.046Z,7.07
2017-09-20T05:53:01.609Z,7.30
2017-09-20T05:55:29.084Z,7.00
2017-09-20T05:57:56.516Z,7.70
2017-09-20T06:00:23.944Z,7.78
2017-09-20T06:02:52.157Z,7.50
2017-09-20T06:05:19.592Z,7.00
2017-09-20T06:07:47.058Z,7.85
2017-09-20T06:10:14.470Z,7.60
2017-09-20T06:12:42.678Z,6.93
2017-09-20T06:15:10.111Z,7.20
2017-09-20T06:17:38.362Z,7.22
2017-09-20T06:20:05.798Z,6.20
2017-09-20T06:22:33.332Z,5.82
2017-09-20T06:25:00.771Z,6.15
2017-09-20T06:27:28.243Z,6.20
2017-09-20T06:29:55.687Z,5.30
2017-09-20T06:32:23.171Z,5.57
2017-09-20T06:34:50.626Z,6.20
2017-09-20T06:37:18.136Z,5.57
2017-09-20T06:39:46.478Z,5.60
2017-09-20T06:42:13.974Z,5.20
2017-09-20T06:44:41.513Z,5.80
2017-09-20T06:47:08.959Z,5.20
2017-09-20T06:49:37.848Z,5.55
2017-09-20T06:52:05.315Z,5.18
2017-09-20T06:54:32.971Z,4.95
2017-09-20T06:57:00.588Z,4.70
2017-09-20T06:59:27.997Z,5.35
2017-09-20T07:01:55.460Z,5.28
2017-09-20T07:04:23.690Z,4.50
2017-09-20T07:06:51.225Z,5.57
2017-09-20T07:09:18.900Z,4.55
2017-09-20T07:11:46.327Z,4.43
2017-09-20T07:14:13.791Z,4.53
2017-09-20T07:16:41.240Z,4.28
2017-09-20T07:19:08.671Z,4.35
2017-09-20T07:21:36.895Z,3.92
2017-09-20T07:24:04.368Z,4.25
2017-09-20T07:26:31.916Z,4.25
2017-09-20T07:28:59.347Z,4.00
2017-09-20T07:31:26.826Z,3.90
2017-09-20T07:33:54.274Z,4.00
2017-09-20T07:36:21.722Z,3.60
2017-09-20T07:38:49.187Z,3.90
2017-09-20T07:41:16.678Z,4.12
2017-09-20T07:43:44.147Z,4.20
2017-09-20T07:46:12.379Z,4.00
2017-09-20T07:48:39.834Z,3.72
2017-09-20T07:51:07.374Z,4.57
2017-09-20T07:53:34.855Z,3.95
2017-09-20T07:56:02.311Z,3.83
2017-09-20T07:58:29.844Z,4.30
2017-09-20T08:00:57.328Z,4.30
2017-09-20T08:03:24.810Z,3.40
2017-09-20T08:05:52.250Z,3.50
2017-09-20T08:08:19.691Z,3.95
2017-09-20T08:10:47.163Z,3.30
2017-09-20T08:13:14.603Z,3.05
2017-09-20T08:15:42.087Z,2.87
2017-09-20T08:18:09.511Z,2.97
2017-09-20T08:20:36.942Z,2.75
2017-09-20T08:23:04.394Z,2.90
2017-09-20T08:25:31.881Z,2.50
2017-09-20T08:27:59.323Z,2.90
2017-09-20T08:30:26.802Z,2.83
2017-09-20T08:32:54.341Z,3.10
2017-09-20T08:35:21.742Z,2.70
2017-09-20T08:37:49.969Z,2.20
2017-09-20T08:40:17.423Z,2.67
2017-09-20T08:42:44.887Z,2.30
2017-09-20T08:45:12.310Z,2.80
2017-09-20T08:47:40.802Z,2.05
2017-09-20T08:50:08.267Z,2.45
2017-09-20T08:52:35.790Z,2.20
2017-09-20T08:55:04.039Z,2.10
2017-09-20T08:57:31.477Z,2.20
2017-09-20T08:59:58.948Z,2.20
2017-09-20T09:02:26.408Z,2.08
2017-09-20T09:04:53.880Z,1.90
2017-09-20T09:07:21.323Z,2.45
2017-09-20T09:09:48.885Z,2.87
2017-09-20T09:12:16.337Z,2.90
2017-09-20T09:14:43.899Z,3.00
2017-09-20T09:17:11.338Z,2.83
2017-09-20T09:19:38.771Z,2.55
2017-09-20T09:22:06.219Z,3.08
2017-09-20T09:24:33.647Z,3.25
2017-09-20T09:27:01.865Z,3.80
2017-09-20T09:29:29.293Z,3.12
2017-09-20T09:31:56.727Z,3.20
2017-09-20T09:34:24.994Z,3.17
2017-09-20T09:36:52.490Z,3.00
2017-09-20T09:39:20.054Z,2.70
2017-09-20T09:41:47.537Z,2.50
2017-09-20T09:44:14.971Z,2.47
2017-09-20T09:46:42.502Z,2.50
2017-09-20T09:49:09.926Z,2.78
2017-09-20T09:51:38.143Z,2.45
2017-09-20T09:54:05.624Z,2.53
2017-09-20T09:56:33.118Z,2.62
2017-09-20T09:59:01.366Z,2.30
2017-09-20T10:01:28.883Z,2.30
2017-09-20T10:03:56.323Z,2.78
2017-09-20T10:06:23.822Z,2.10
2017-09-20T10:08:52.027Z,2.50
2017-09-20T10:11:19.479Z,2.70
2017-09-20T10:13:47.062Z,2.80
2017-09-20T10:16:14.512Z,2.70
2017-09-20T10:18:41.965Z,2.85
2017-09-20T10:21:09.451Z,2.60
2017-09-20T10:23:37.009Z,2.70
2017-09-20T10:26:04.528Z,2.60
2017-09-20T10:28:31.982Z,3.10
2017-09-20T10:30:59.492Z,2.78
2017-09-20T10:33:26.916Z,3.20
2017-09-20T10:35:54.561Z,2.60
2017-09-20T10:38:21.991Z,2.37
2017-09-20T10:40:49.497Z,2.60
2017-09-20T10:43:16.968Z,2.62
2017-09-20T10:45:44.772Z,2.62
2017-09-20T10:48:12.985Z,2.75
2017-09-20T10:50:40.433Z,2.90
2017-09-20T10:53:07.894Z,2.92
2017-09-20T10:55:35.364Z,2.30
2017-09-20T10:58:02.775Z,2.50
2017-09-20T11:00:30.214Z,3.20
2017-09-20T11:02:58.426Z,3.00
2017-09-20T11:05:25.863Z,2.92
2017-09-20T11:07:53.314Z,2.75
2017-09-20T11:10:20.758Z,2.70
2017-09-20T11:12:49.018Z,2.92
2017-09-20T11:15:16.623Z,2.30
2017-09-20T11:17:44.046Z,2.55
2017-09-20T11:20:12.262Z,3.20
2017-09-20T11:22:39.697Z,2.15
2017-09-20T11:25:07.181Z,2.97
2017-09-20T11:27:34.597Z,2.45
2017-09-20T11:30:02.123Z,2.90
2017-09-20T11:32:29.561Z,2.90
2017-09-20T11:34:57.056Z,2.90
2017-09-20T11:37:24.551Z,2.60
2017-09-20T11:39:51.983Z,2.62
2017-09-20T11:42:19.428Z,2.90
2017-09-20T11:44:47.670Z,3.25
2017-09-20T11:47:15.107Z,2.80
2017-09-20T11:49:42.572Z,2.90
2017-09-20T11:52:10.007Z,3.67
2017-09-20T11:54:37.491Z,2.70
2017-09-20T11:57:04.923Z,2.70
2017-09-20T11:59:33.153Z,2.50
2017-09-20T12:02:01.358Z,2.53
2017-09-20T12:04:28.790Z,2.87
2017-09-20T12:06:56.315Z,2.50
2017-09-20T12:09:23.747Z,2.08
2017-09-20T12:11:51.226Z,2.20
2017-09-20T12:14:18.639Z,1.98
2017-09-20T12:16:46.127Z,2.60
2017-09-20T12:19:13.543Z,2.10
2017-09-20T12:21:41.034Z,2.75
2017-09-20T12:24:08.487Z,2.60
2017-09-20T12:26:35.928Z,2.80
2017-09-20T12:29:03.413Z,2.62
2017-09-20T12:31:30.871Z,2.75
2017-09-20T12:33:58.911Z,2.60
2017-09-20T12:36:26.468Z,2.90
2017-09-20T12:38:53.976Z,2.80
2017-09-20T12:41:21.395Z,2.70
2017-09-20T12:43:48.851Z,2.50
2017-09-20T12:46:16.312Z,2.60
2017-09-20T12:48:43.771Z,2.50
2017-09-20T12:51:11.225Z,2.72
2017-09-20T12:53:38.667Z,2.95
2017-09-20T12:56:06.150Z,2.50
2017-09-20T12:58:33.594Z,2.33
2017-09-20T13:01:01.023Z,3.80
2017-09-20T13:03:28.503Z,2.90
2017-09-20T13:05:56.045Z,3.00
2017-09-20T13:08:23.470Z,4.05
2017-09-20T13:10:51.670Z,3.10
2017-09-20T13:13:19.125Z,3.20
2017-09-20T13:15:46.544Z,3.45
2017-09-20T13:18:14.066Z,2.90
2017-09-20T13:20:41.497Z,3.60
2017-09-20T13:23:08.983Z,3.35
2017-09-20T13:25:36.424Z,3.50
2017-09-20T13:28:03.861Z,4.10
2017-09-20T13:30:31.338Z,4.12
2017-09-20T13:32:58.791Z,3.80
2017-09-20T13:35:26.251Z,4.20
2017-09-20T13:37:53.693Z,3.92
2017-09-20T13:40:21.181Z,3.42
2017-09-20T13:42:48.619Z,4.03
2017-09-20T13:45:16.058Z,4.10
2017-09-20T13:47:43.498Z,3.80
2017-09-20T13:50:10.943Z,4.00
2017-09-20T13:52:39.166Z,4.50
2017-09-20T13:55:06.621Z,4.32
2017-09-20T13:57:34.039Z,5.10
2017-09-20T14:00:01.495Z,4.37
2017-09-20T14:02:28.919Z,5.10
2017-09-20T14:04:56.387Z,4.80
2017-09-20T14:07:23.798Z,4.30
2017-09-20T14:09:51.249Z,4.10
2017-09-20T14:12:18.693Z,3.70
2017-09-20T14:14:46.175Z,3.50
2017-09-20T14:17:13.611Z,3.53
2017-09-20T14:19:41.056Z,3.53
2017-09-20T14:22:08.498Z,3.70
2017-09-20T14:24:36.710Z,3.20
2017-09-20T14:27:04.167Z,3.22
2017-09-20T14:29:31.736Z,3.67
2017-09-20T14:31:59.171Z,3.55
2017-09-20T14:34:26.727Z,3.60
2017-09-20T14:36:54.926Z,4.32
2017-09-20T14:39:22.379Z,4.43
2017-09-20T14:41:49.936Z,4.60
2017-09-20T14:44:17.398Z,4.15
2017-09-20T14:46:44.896Z,4.30
2017-09-20T14:49:12.327Z,4.65
2017-09-20T14:51:39.758Z,5.35
2017-09-20T14:54:07.228Z,5.47
2017-09-20T14:56:34.677Z,6.00
2017-09-20T14:59:02.138Z,6.07
2017-09-20T15:01:29.606Z,5.70
2017-09-20T15:03:57.142Z,6.00
2017-09-20T15:06:24.688Z,6.40
2017-09-20T15:08:52.120Z,6.10
2017-09-20T15:11:19.627Z,5.87
2017-09-20T15:13:47.073Z,6.12
2017-09-20T15:16:14.513Z,6.40
2017-09-20T15:18:41.939Z,7.30
2017-09-20T15:21:10.179Z,7.07
2017-09-20T15:23:39.169Z,6.90
2017-09-20T15:26:06.634Z,7.28
2017-09-20T15:28:34.167Z,7.00
2017-09-20T15:31:01.604Z,7.37
2017-09-20T15:33:29.037Z,6.45
2017-09-20T15:35:57.330Z,6.90
2017-09-20T15:38:24.864Z,6.80
2017-09-20T15:40:53.539Z,6.77
2017-09-20T15:43:20.961Z,7.18
2017-09-20T15:45:48.487Z,7.22
2017-09-20T15:48:15.976Z,7.37
2017-09-20T15:50:43.407Z,7.03
2017-09-20T15:53:10.894Z,6.90
2017-09-20T15:55:38.362Z,6.85
2017-09-20T15:58:05.799Z,7.05
2017-09-20T16:00:33.248Z,6.87
2017-09-20T16:03:00.701Z,7.13
2017-09-20T16:05:28.154Z,6.32
2017-09-20T16:07:55.597Z,6.00
2017-09-20T16:10:23.038Z,6.47
2017-09-20T16:12:51.679Z,6.78
2017-09-20T16:15:19.209Z,6.53
2017-09-20T16:17:46.786Z,6.82
2017-09-20T16:20:14.210Z,6.30
2017-09-20T16:22:41.667Z,6.45
2017-09-20T16:25:09.860Z,7.12
2017-09-20T16:27:37.327Z,7.47
2017-09-20T16:30:04.919Z,6.90
2017-09-20T16:32:32.366Z,6.90
2017-09-20T16:34:59.799Z,7.28
2017-09-20T16:37:27.486Z,7.18
2017-09-20T16:39:54.915Z,6.60
2017-09-20T16:42:22.372Z,7.28
2017-09-20T16:44:49.795Z,7.07
2017-09-20T16:47:17.238Z,6.90
2017-09-20T16:49:45.452Z,6.95
2017-09-20T16:52:12.930Z,7.10
2017-09-20T16:54:40.476Z,7.70
2017-09-20T16:57:07.911Z,7.45
2017-09-20T16:59:36.103Z,7.87
2017-09-20T17:02:03.999Z,7.45
2017-09-20T17:04:31.539Z,8.38
2017-09-20T17:06:58.963Z,7.70
2017-09-20T17:09:26.397Z,7.90
2017-09-20T17:11:53.847Z,7.90
2017-09-20T17:14:21.307Z,8.32
2017-09-20T17:16:48.752Z,7.97
2017-09-20T17:19:16.194Z,8.27
2017-09-20T17:21:44.393Z,7.75
2017-09-20T17:24:11.838Z,8.15
2017-09-20T17:26:39.332Z,7.90
2017-09-20T17:29:06.834Z,8.65
2017-09-20T17:31:35.043Z,8.60
2017-09-20T17:34:02.524Z,8.23
2017-09-20T17:36:29.955Z,8.13
2017-09-20T17:38:57.443Z,8.73
2017-09-20T17:41:24.903Z,8.40
2017-09-20T17:43:52.374Z,8.55
2017-09-20T17:46:19.814Z,8.73
2017-09-20T17:48:47.282Z,8.80
2017-09-20T17:51:14.831Z,9.30
2017-09-20T17:53:42.343Z,9.70
2017-09-20T17:56:09.813Z,9.25
2017-09-20T17:58:37.474Z,10.00
2017-09-20T18:01:04.982Z,10.20
2017-09-20T18:03:32.467Z,10.30
2017-09-20T18:06:00.763Z,10.65
2017-09-20T18:08:28.199Z,11.20
2017-09-20T18:10:55.651Z,11.88
2017-09-20T18:13:23.090Z,12.00
2017-09-20T18:15:50.543Z,12.10
2017-09-20T18:18:17.983Z,12.48
2017-09-20T18:20:46.209Z,11.93
2017-09-20T18:23:13.652Z,12.73
2017-09-20T18:25:41.093Z,12.10
2017-09-20T18:28:08.592Z,12.30
2017-09-20T18:30:36.039Z,12.25
2017-09-20T18:33:03.476Z,12.50
2017-09-20T18:35:31.724Z,12.60
2017-09-20T18:37:59.163Z,13.40
2017-09-20T18:40:27.381Z,13.65
2017-09-20T18:42:54.857Z,14.68
2017-09-20T18:45:22.324Z,13.60
2017-09-20T18:47:49.894Z,14.40
2017-09-20T18:50:17.345Z,14.93
2017-09-20T18:52:44.779Z,14.57
2017-09-20T18:55:12.323Z,14.87
2017-09-20T18:57:39.746Z,14.87
2017-09-20T19:00:08.004Z,15.38
2017-09-20T19:02:36.979Z,15.80
2017-09-20T19:05:04.460Z,16.40
2017-09-20T19:07:32.660Z,15.13
2017-09-20T19:10:00.087Z,15.93
2017-09-20T19:12:28.311Z,16.00
2017-09-20T19:14:55.796Z,16.17
2017-09-20T19:17:23.331Z,16.40
2017-09-20T19:19:50.770Z,16.90
2017-09-20T19:22:18.227Z,17.52
2017-09-20T19:24:45.723Z,18.58
2017-09-20T19:27:13.205Z,18.60
2017-09-20T19:29:41.421Z,17.70
2017-09-20T19:32:08.883Z,18.83
2017-09-20T19:34:36.337Z,18.17
2017-09-20T19:37:03.828Z,17.15
2017-09-20T19:39:31.408Z,18.10
2017-09-20T19:41:59.795Z,17.80
2017-09-20T19:44:27.266Z,19.27
2017-09-20T19:46:54.692Z,18.25
2017-09-20T19:49:22.926Z,19.10
2017-09-20T19:51:50.374Z,17.90
2017-09-20T19:54:17.819Z,19.85
2017-09-20T19:56:45.254Z,19.42
2017-09-20T19:59:12.732Z,18.92
2017-09-20T20:01:40.165Z,20.50
2017-09-20T20:04:07.716Z,18.27
2017-09-20T20:06:35.963Z,18.60
2017-09-20T20:09:03.410Z,18.87
2017-09-20T20:11:30.857Z,19.40
2017-09-20T20:13:58.884Z,20.40
2017-09-20T20:16:26.395Z,21.33
2017-09-20T20:18:53.840Z,21.17
2017-09-20T20:21:21.272Z,21.50
2017-09-20T20:23:48.730Z,22.10
2017-09-20T20:26:16.951Z,21.07
2017-09-20T20:28:44.391Z,22.25
2017-09-20T20:31:11.836Z,21.55
2017-09-20T20:33:39.271Z,23.07
2017-09-20T20:36:06.714Z,21.83
2017-09-20T20:38:34.168Z,22.80
2017-09-20T20:41:01.666Z,23.15
2017-09-20T20:43:30.067Z,22.00
2017-09-20T20:45:57.507Z,22.80
2017-09-20T20:48:24.983Z,24.63
2017-09-20T20:50:52.411Z,22.07
2017-09-20T20:53:19.864Z,23.62
2017-09-20T20:55:47.325Z,23.55
2017-09-20T20:58:14.857Z,23.27
2017-09-20T21:00:42.361Z,23.80
2017-09-20T21:03:10.595Z,22.10
2017-09-20T21:05:38.078Z,23.40
2017-09-20T21:08:05.618Z,21.48
2017-09-20T21:10:33.066Z,21.50
2017-09-20T21:13:00.502Z,23.40
2017-09-20T21:15:27.950Z,22.70
2017-09-20T21:17:55.390Z,22.83
2017-09-20T21:20:23.621Z,22.40
2017-09-20T21:22:51.058Z,22.50
2017-09-20T21:25:18.502Z,23.05
2017-09-20T21:27:45.991Z,24.08
2017-09-20T21:30:13.447Z,23.08
2017-09-20T21:32:40.942Z,23.27
2017-09-20T21:35:09.181Z,22.10
2017-09-20T21:37:36.614Z,23.20
2017-09-20T21:40:04.067Z,24.42
2017-09-20T21:42:31.498Z,23.95
2017-09-20T21:44:59.727Z,24.85
2017-09-20T21:47:27.176Z,24.70
2017-09-20T21:49:54.635Z,25.65
2017-09-20T21:52:22.078Z,24.73
2017-09-20T21:54:49.502Z,25.98
2017-09-20T21:57:16.938Z,27.05
2017-09-20T21:59:45.177Z,26.20
2017-09-20T22:02:12.614Z,27.00
2017-09-20T22:04:40.093Z,27.48
2017-09-20T22:07:07.538Z,26.60
2017-09-20T22:09:35.020Z,26.23
2017-09-20T22:12:02.671Z,26.60
2017-09-20T22:14:30.240Z,28.38
2017-09-20T22:17:09.459Z,25.92
2017-09-20T22:19:48.786Z,27.02
2017-09-20T22:22:28.159Z,27.40
2017-09-20T22:25:08.203Z,27.85
2017-09-20T22:27:35.646Z,26.75
2017-09-20T22:30:03.086Z,28.58
2017-09-20T22:32:30.567Z,28.00
2017-09-20T22:34:58.007Z,26.60
2017-09-20T22:37:25.451Z,27.90
2017-09-20T22:39:52.895Z,28.23
2017-09-20T22:42:20.375Z,27.20
2017-09-20T22:44:47.831Z,28.90
2017-09-20T22:47:15.263Z,29.10
2017-09-20T22:49:42.723Z,28.87
2017-09-20T22:52:10.193Z,30.03
2017-09-20T22:54:37.630Z,30.05
2017-09-20T22:57:05.071Z,29.95
2017-09-20T22:59:32.562Z,28.98
2017-09-20T23:02:00.034Z,29.97
2017-09-20T23:04:27.475Z,29.67
2017-09-20T23:06:54.924Z,29.67
2017-09-20T23:09:22.367Z,29.30
2017-09-20T23:11:49.798Z,29.95
2017-09-20T23:14:17.294Z,31.27
2017-09-20T23:16:44.734Z,31.02
2017-09-20T23:19:12.202Z,30.10
2017-09-20T23:21:39.634Z,31.80
2017-09-20T23:24:07.103Z,30.35
2017-09-20T23:26:34.538Z,31.75
2017-09-20T23:29:01.974Z,29.67
2017-09-20T23:31:30.189Z,31.70
2017-09-20T23:33:58.076Z,31.40
2017-09-20T23:36:25.530Z,30.95
2017-09-20T23:38:52.967Z,32.13
2017-09-20T23:41:20.407Z,30.85
2017-09-20T23:43:47.854Z,32.83
2017-09-20T23:46:15.318Z,31.83
2017-09-20T23:48:42.755Z,32.70
2017-09-20T23:51:10.954Z,30.95
2017-09-20T23:53:38.394Z,31.42
2017-09-20T23:56:05.903Z,30.52
2017-09-20T23:58:33.339Z,30.30
